Time;durP1;ratioP1;P1;durP2;ratioP2;P2;SDS_P1;SDS_P2;PMS_P1;PMS_P2;Temp;Humidity;BMP_temperature;BMP_pressure;BME280_temperature;BME280_humidity;BME280_pressure;Samples;Min_cycle;Max_cycle;Signal;HPM_P1;HPM_P2
2021/12/15 00:00:38;;;;;;;39.20;21.58;;;;;;;1.38;100.00;101934.06;5034550;28;20049;-80
2021/12/15 00:03:07;;;;;;;36.42;20.90;;;;;;;1.40;100.00;101934.72;5034616;28;20488;-80
2021/12/15 00:05:35;;;;;;;37.40;22.10;;;;;;;1.41;100.00;101933.72;5034578;28;20049;-80
2021/12/15 00:08:07;;;;;;;45.85;23.25;;;;;;;1.52;100.00;101938.63;5003440;28;20049;-81
2021/12/15 00:10:35;;;;;;;45.03;21.98;;;;;;;1.55;100.00;101942.81;5034434;28;20049;-81
2021/12/15 00:13:03;;;;;;;44.88;23.13;;;;;;;1.53;100.00;101926.84;5025861;28;20054;-80
2021/12/15 00:15:31;;;;;;;47.78;24.20;;;;;;;1.54;100.00;101931.19;5017332;28;20053;-80
2021/12/15 00:18:00;;;;;;;35.65;20.98;;;;;;;1.51;100.00;101928.84;5030313;28;20072;-81
2021/12/15 00:20:28;;;;;;;42.50;23.75;;;;;;;1.50;100.00;101935.28;5034269;28;20055;-81
2021/12/15 00:22:57;;;;;;;42.42;23.17;;;;;;;1.68;100.00;101942.16;5032954;28;20064;-81
2021/12/15 00:25:29;;;;;;;38.90;23.98;;;;;;;1.64;100.00;101933.63;5034446;28;20041;-81
2021/12/15 00:27:57;;;;;;;44.28;22.13;;;;;;;1.64;100.00;101932.75;5034039;28;20050;-81
2021/12/15 00:30:25;;;;;;;41.67;22.67;;;;;;;1.44;100.00;101930.63;5034110;28;20507;-81
2021/12/15 00:32:56;;;;;;;37.47;21.33;;;;;;;1.41;100.00;101933.72;5033882;28;20054;-81
2021/12/15 00:35:25;;;;;;;38.78;21.08;;;;;;;1.31;100.00;101934.81;5032801;28;20045;-81
2021/12/15 00:37:53;;;;;;;36.63;20.38;;;;;;;1.18;100.00;101929.22;5034061;28;20499;-81
2021/12/15 00:40:23;;;;;;;42.45;21.83;;;;;;;1.19;100.00;101926.31;5020415;28;20052;-81
2021/12/15 00:42:53;;;;;;;42.20;21.67;;;;;;;1.17;100.00;101941.84;5033866;28;20049;-81
2021/12/15 00:45:21;;;;;;;43.28;23.25;;;;;;;1.12;100.00;101933.47;5021678;28;20065;-81
2021/12/15 00:47:49;;;;;;;46.00;23.27;;;;;;;1.11;100.00;101922.88;5025364;28;20069;-81
2021/12/15 00:50:20;;;;;;;50.85;26.17;;;;;;;1.12;100.00;101932.66;5017799;28;20053;-81
2021/12/15 00:52:48;;;;;;;41.92;24.95;;;;;;;0.98;100.00;101924.31;5020506;28;20052;-81
2021/12/15 00:55:20;;;;;;;43.45;23.75;;;;;;;0.88;100.00;101927.28;5033674;28;20053;-80
2021/12/15 00:57:49;;;;;;;49.30;25.55;;;;;;;0.75;100.00;101930.59;5033775;28;20057;-80
2021/12/15 01:00:25;;;;;;;47.03;22.90;;;;;;;0.65;100.00;101930.00;5032587;28;20049;-81
2021/12/15 01:02:53;;;;;;;45.00;22.48;;;;;;;0.56;100.00;101941.84;5032280;28;20049;-81
2021/12/15 01:05:24;;;;;;;43.72;24.15;;;;;;;0.52;100.00;101939.53;5033414;28;20038;-81
2021/12/15 01:07:53;;;;;;;49.88;24.63;;;;;;;0.50;100.00;101941.53;5032971;28;20061;-81
2021/12/15 01:10:28;;;;;;;43.72;23.75;;;;;;;0.41;100.00;101929.16;5033349;28;20046;-81
2021/12/15 01:21:14;;;;;;;42.70;22.70;;;;;;;0.55;100.00;101959.88;5028785;28;20382;-81
2021/12/15 01:23:42;;;;;;;38.97;23.40;;;;;;;0.62;100.00;101960.84;5031850;28;20041;-81
2021/12/15 01:26:13;;;;;;;43.03;21.17;;;;;;;0.57;100.00;101956.97;5032980;28;20045;-81
2021/12/15 01:28:42;;;;;;;48.90;23.02;;;;;;;0.50;100.00;101949.63;5015274;28;20041;-80
2021/12/15 01:31:10;;;;;;;48.20;22.42;;;;;;;0.55;100.00;101957.19;5032711;28;20531;-81
2021/12/15 01:33:40;;;;;;;39.80;21.08;;;;;;;0.61;100.00;101959.16;5032802;28;20048;-81
2021/12/15 01:36:09;;;;;;;37.30;19.80;;;;;;;0.72;100.00;101957.06;5033097;28;20050;-81
2021/12/15 01:38:40;;;;;;;41.50;21.45;;;;;;;0.66;100.00;101959.47;5032754;28;20050;-80
2021/12/15 01:41:19;;;;;;;40.67;21.02;;;;;;;0.57;100.00;101955.13;5032768;28;20045;-81
2021/12/15 01:46:58;;;;;;;42.28;20.25;;;;;;;0.45;100.00;101962.81;5029803;28;20496;-81
2021/12/15 01:49:40;;;;;;;35.63;18.92;;;;;;;0.54;100.00;101966.28;5022602;28;20057;-81
2021/12/15 01:52:17;;;;;;;37.15;19.90;;;;;;;0.66;100.00;101972.09;5018702;28;20117;-81
2021/12/15 01:54:52;;;;;;;32.42;17.70;;;;;;;0.53;100.00;101960.06;5032500;28;20050;-81
2021/12/15 01:57:22;;;;;;;34.63;18.55;;;;;;;0.43;100.00;101964.81;5029391;28;20076;-81
2021/12/15 01:59:53;;;;;;;33.05;18.70;;;;;;;0.34;100.00;101958.66;5021364;28;20408;-81
2021/12/15 02:02:21;;;;;;;42.00;18.05;;;;;;;0.32;100.00;101965.22;5031169;28;20048;-80
2021/12/15 02:04:51;;;;;;;32.58;18.50;;;;;;;0.28;100.00;101955.84;5031129;28;20064;-81
2021/12/15 02:07:21;;;;;;;31.75;18.17;;;;;;;0.21;100.00;101955.69;5032197;28;20041;-81
2021/12/15 02:12:25;;;;;;;34.65;16.98;;;;;;;0.18;100.00;101945.28;5031118;28;20049;-81
2021/12/15 02:14:55;;;;;;;31.50;18.20;;;;;;;0.17;100.00;101957.06;5032129;28;20045;-80
2021/12/15 02:17:23;;;;;;;33.38;18.33;;;;;;;0.19;100.00;101961.25;5024696;28;20495;-81
2021/12/15 02:19:51;;;;;;;33.75;18.02;;;;;;;0.17;100.00;101959.75;5029911;28;20044;-80
2021/12/15 02:22:19;;;;;;;33.25;17.58;;;;;;;0.15;100.00;101962.63;5030895;28;20109;-81
2021/12/15 02:24:51;;;;;;;30.55;16.83;;;;;;;0.08;100.00;101961.63;5030881;28;20042;-81
2021/12/15 02:27:21;;;;;;;35.58;18.13;;;;;;;0.02;100.00;101956.97;5032135;28;20049;-80
2021/12/15 02:29:57;;;;;;;31.38;16.65;;;;;;;0.06;100.00;101963.69;5030748;28;20392;-80
2021/12/15 02:32:49;;;;;;;33.10;16.60;;;;;;;0.02;100.00;101959.66;5032165;28;20053;-80
2021/12/15 02:38:05;;;;;;;31.15;16.67;;;;;;;0.12;100.00;101954.91;5032119;28;20049;-80
2021/12/15 02:40:33;;;;;;;33.38;17.05;;;;;;;0.05;100.00;101948.56;5030785;28;20057;-80
2021/12/15 02:43:01;;;;;;;33.55;17.77;;;;;;;0.06;100.00;101964.53;5031749;28;20038;-81
2021/12/15 02:45:29;;;;;;;32.70;16.77;;;;;;;0.03;100.00;101980.16;5031373;28;20048;-80
2021/12/15 02:47:58;;;;;;;32.63;17.52;;;;;;;0.06;100.00;101974.44;5019123;28;20949;-80
2021/12/15 02:50:28;;;;;;;31.20;17.13;;;;;;;0.10;100.00;101978.47;5026132;28;20050;-81
2021/12/15 02:53:01;;;;;;;34.97;19.05;;;;;;;0.18;100.00;101964.97;5031370;28;20041;-80
2021/12/15 02:55:29;;;;;;;31.33;17.13;;;;;;;0.31;100.00;101960.84;5026459;28;20045;-80
2021/12/15 02:57:57;;;;;;;36.65;17.20;;;;;;;0.48;100.00;101957.06;5031834;28;20050;-80
2021/12/15 03:00:32;;;;;;;32.90;18.20;;;;;;;0.36;100.00;101964.72;5032002;28;20045;-80
2021/12/15 03:05:53;;;;;;;30.88;16.67;;;;;;;0.15;100.00;101962.63;5031659;28;20042;-80
2021/12/15 03:08:45;;;;;;;30.42;15.60;;;;;;;0.07;100.00;101968.03;5031857;28;20048;-80
2021/12/15 03:16:46;;;;;;;30.98;16.52;;;;;;;0.00;100.00;101967.94;5022477;28;20042;-80
2021/12/15 03:19:14;;;;;;;30.63;16.25;;;;;;;-0.06;100.00;101966.75;5030360;28;20042;-81
2021/12/15 03:21:43;;;;;;;27.95;17.13;;;;;;;-0.09;100.00;101977.88;5020644;28;20046;-81
2021/12/15 03:24:17;;;;;;;30.60;16.17;;;;;;;-0.12;100.00;101983.59;5030228;28;20054;-81
2021/12/15 03:26:58;;;;;;;31.88;16.02;;;;;;;-0.18;100.00;101974.38;5031579;28;20042;-81
2021/12/15 03:37:53;;;;;;;28.15;13.93;;;;;;;-0.12;100.00;101967.44;5035212;28;20058;-81
2021/12/15 03:40:36;;;;;;;27.85;14.68;;;;;;;-0.09;100.00;101971.66;5021354;28;20054;-81
2021/12/15 03:43:11;;;;;;;25.08;13.55;;;;;;;-0.10;100.00;101970.81;5034862;28;20045;-80
2021/12/15 03:45:44;;;;;;;24.77;13.48;;;;;;;-0.10;100.00;101975.34;5032378;28;20408;-80
2021/12/15 03:48:15;;;;;;;21.30;12.75;;;;;;;-0.08;100.00;101968.78;5022937;28;20054;-80
2021/12/15 03:50:45;;;;;;;27.00;12.77;;;;;;;0.03;100.00;101972.09;5018866;28;20477;-81
2021/12/15 03:53:15;;;;;;;23.23;12.45;;;;;;;-0.01;100.00;101971.59;5024881;28;20049;-81
2021/12/15 03:55:43;;;;;;;24.63;13.77;;;;;;;-0.07;100.00;101965.09;5034758;28;20515;-81
2021/12/15 03:58:13;;;;;;;27.35;14.25;;;;;;;-0.09;100.00;101980.56;5034698;28;20068;-81
2021/12/15 04:00:51;;;;;;;26.40;14.00;;;;;;;-0.16;100.00;101983.13;5034544;28;20060;-80
2021/12/15 04:03:28;;;;;;;20.88;12.77;;;;;;;-0.21;100.00;101982.78;5034637;28;20049;-81
2021/12/15 04:05:58;;;;;;;26.38;13.40;;;;;;;-0.24;100.00;101985.00;5034495;28;20054;-81
2021/12/15 04:08:28;;;;;;;21.02;11.45;;;;;;;-0.26;100.00;101977.09;5034483;28;20041;-80
2021/12/15 04:10:58;;;;;;;23.17;12.13;;;;;;;-0.30;100.00;101981.97;5034427;28;20086;-80
2021/12/15 04:13:26;;;;;;;21.90;11.40;;;;;;;-0.30;100.00;101987.34;5034486;28;20041;-80
2021/12/15 04:15:57;;;;;;;21.60;12.50;;;;;;;-0.34;100.00;101986.00;5033205;28;20065;-80
2021/12/15 04:18:25;;;;;;;20.25;11.27;;;;;;;-0.33;100.00;101987.72;5023740;28;20042;-81
2021/12/15 04:20:54;;;;;;;22.02;11.20;;;;;;;-0.33;100.00;101985.03;5019743;28;20535;-81
2021/12/15 04:23:22;;;;;;;22.30;11.63;;;;;;;-0.35;100.00;101972.75;5019412;28;20045;-80
2021/12/15 04:25:54;;;;;;;21.67;11.50;;;;;;;-0.32;100.00;101980.47;5034079;28;20488;-81
2021/12/15 04:28:27;;;;;;;21.80;11.10;;;;;;;-0.38;100.00;101979.31;5034089;28;20041;-80
2021/12/15 04:30:59;;;;;;;25.00;10.95;;;;;;;-0.30;100.00;101987.34;5034189;28;20396;-80
2021/12/15 04:33:44;;;;;;;24.33;10.65;;;;;;;-0.24;100.00;101990.38;5034020;28;20046;-81
2021/12/15 04:36:14;;;;;;;20.63;10.93;;;;;;;-0.25;100.00;101980.63;5033909;28;20057;-80
2021/12/15 04:38:43;;;;;;;19.40;10.40;;;;;;;-0.27;100.00;101991.56;5034023;28;20499;-80
2021/12/15 04:41:16;;;;;;;22.42;10.98;;;;;;;-0.31;100.00;101976.75;5033712;28;20046;-80
2021/12/15 04:44:10;;;;;;;20.35;10.45;;;;;;;-0.34;100.00;101972.56;5034036;28;20050;-81
2021/12/15 04:46:43;;;;;;;18.70;10.60;;;;;;;-0.31;100.00;101990.22;5027340;28;20053;-80
2021/12/15 04:49:14;;;;;;;21.97;9.90;;;;;;;-0.36;100.00;101977.28;5020323;28;20046;-80
2021/12/15 04:51:42;;;;;;;20.00;10.45;;;;;;;-0.31;100.00;101987.53;5026338;28;20299;-80
2021/12/15 04:54:10;;;;;;;21.67;10.98;;;;;;;-0.21;100.00;101980.09;5033322;28;20041;-80
2021/12/15 04:56:38;;;;;;;23.10;11.25;;;;;;;-0.25;100.00;101980.63;5032488;28;20068;-80
2021/12/15 04:59:06;;;;;;;20.55;11.55;;;;;;;-0.29;100.00;101972.88;5033409;28;20481;-80
2021/12/15 05:01:34;;;;;;;28.52;10.90;;;;;;;-0.24;100.00;101985.00;5030919;28;20496;-80
2021/12/15 05:04:03;;;;;;;21.77;11.95;;;;;;;-0.29;100.00;101982.81;5030094;28;20060;-80
2021/12/15 05:06:31;;;;;;;18.50;10.20;;;;;;;-0.31;100.00;101993.75;5028606;28;20062;-79
2021/12/15 05:09:00;;;;;;;17.58;8.88;;;;;;;-0.27;100.00;101988.88;5027333;28;20050;-80
2021/12/15 05:11:28;;;;;;;23.90;9.52;;;;;;;-0.28;100.00;101985.31;5021665;28;20045;-80
2021/12/15 05:13:56;;;;;;;20.92;10.18;;;;;;;-0.26;100.00;102000.47;5031990;28;20045;-80
2021/12/15 05:16:24;;;;;;;21.45;10.07;;;;;;;-0.29;100.00;102002.47;5032799;28;20048;-80
2021/12/15 05:18:53;;;;;;;19.48;9.00;;;;;;;-0.30;100.00;102006.19;5029283;28;20397;-80
2021/12/15 05:21:23;;;;;;;16.23;9.70;;;;;;;-0.29;100.00;102005.16;5025930;28;20401;-80
2021/12/15 05:23:56;;;;;;;18.73;9.35;;;;;;;-0.28;100.00;102004.16;5018769;28;20041;-81
2021/12/15 05:26:25;;;;;;;19.13;10.25;;;;;;;-0.31;100.00;102004.50;5030334;28;20044;-80
2021/12/15 05:28:53;;;;;;;16.58;9.55;;;;;;;-0.29;100.00;102002.47;5026665;28;20038;-80
2021/12/15 05:31:21;;;;;;;17.42;9.35;;;;;;;-0.28;100.00;102006.03;5029944;28;20060;-80
2021/12/15 05:33:49;;;;;;;14.98;8.85;;;;;;;-0.29;100.00;102005.16;5030831;28;20412;-80
2021/12/15 05:36:17;;;;;;;15.88;9.00;;;;;;;-0.23;100.00;102018.94;5026090;28;20405;-80
2021/12/15 05:38:45;;;;;;;14.77;8.77;;;;;;;-0.05;100.00;102024.94;5028625;28;20049;-80
2021/12/15 05:41:13;;;;;;;16.42;8.82;;;;;;;0.04;100.00;102019.56;5017800;28;20030;-81
2021/12/15 05:43:42;;;;;;;18.33;8.80;;;;;;;-0.02;100.00;102015.69;5027673;28;20392;-80
2021/12/15 05:46:10;;;;;;;15.80;8.32;;;;;;;-0.05;100.00;102019.56;5017663;28;20045;-80
2021/12/15 05:48:38;;;;;;;15.23;8.63;;;;;;;-0.03;100.00;102028.31;5024400;28;20046;-81
2021/12/15 05:51:07;;;;;;;13.82;8.55;;;;;;;-0.04;100.00;102033.88;5029942;28;20041;-80
2021/12/15 05:53:35;;;;;;;12.43;7.65;;;;;;;-0.11;100.00;102027.50;5028796;28;20496;-81
2021/12/15 05:56:04;;;;;;;14.80;7.35;;;;;;;-0.14;100.00;102039.47;5025641;28;20432;-80
2021/12/15 05:58:32;;;;;;;14.20;8.35;;;;;;;0.04;100.00;102038.41;5022769;28;20048;-80
2021/12/15 06:01:01;;;;;;;17.20;8.60;;;;;;;0.23;100.00;102040.69;5023383;28;20065;-81
2021/12/15 06:03:29;;;;;;;16.80;8.93;;;;;;;0.17;100.00;102036.00;5027015;28;20393;-80
2021/12/15 06:05:57;;;;;;;16.73;8.55;;;;;;;0.07;100.00;102036.19;5030020;28;20053;-84
2021/12/15 06:08:25;;;;;;;18.73;10.23;;;;;;;0.04;100.00;102041.91;5020228;28;20393;-81
2021/12/15 06:10:54;;;;;;;16.02;9.00;;;;;;;-0.01;100.00;102049.66;5028952;28;20044;-82
2021/12/15 06:13:25;;;;;;;16.73;9.55;;;;;;;0.11;100.00;102048.28;5029014;28;20041;-80
2021/12/15 06:15:55;;;;;;;18.45;9.20;;;;;;;-0.01;100.00;102031.69;5022664;28;20057;-81
2021/12/15 06:18:25;;;;;;;19.05;9.73;;;;;;;0.01;100.00;102041.44;5028927;28;20052;-81
2021/12/15 06:20:54;;;;;;;15.75;9.38;;;;;;;-0.05;100.00;102051.03;5017919;28;20049;-80
2021/12/15 06:23:22;;;;;;;19.60;9.63;;;;;;;0.22;100.00;102055.16;5015707;28;20061;-87
2021/12/15 06:25:56;;;;;;;22.45;9.90;;;;;;;0.62;100.00;102067.75;5022826;28;20068;-87
2021/12/15 06:28:26;;;;;;;20.67;9.85;;;;;;;0.82;100.00;102064.63;5031567;28;20507;-89
2021/12/15 06:30:55;;;;;;;15.15;8.73;;;;;;;1.04;100.00;102068.38;5030920;28;20049;-90
2021/12/15 06:33:25;;;;;;;17.40;9.73;;;;;;;1.01;100.00;102074.94;5030255;28;20041;-89
2021/12/15 06:35:54;;;;;;;16.67;9.40;;;;;;;1.09;100.00;102070.50;5031572;28;20515;-87
2021/12/15 06:38:25;;;;;;;20.63;10.13;;;;;;;1.19;99.52;102066.53;5031212;28;20037;-87
2021/12/15 06:40:53;;;;;;;17.20;8.93;;;;;;;1.20;99.26;102068.25;5031141;28;20045;-88
2021/12/15 06:43:22;;;;;;;22.63;9.55;;;;;;;1.25;99.18;102069.53;5030364;28;20455;-87
2021/12/15 06:46:51;;;;;;;15.98;9.73;;;;;;;1.11;98.57;102066.63;5031547;28;20044;-80
2021/12/15 06:59:46;;;;;;;15.98;7.95;;;;;;;0.28;100.00;102079.72;5031438;28;20045;-80
2021/12/15 07:02:15;;;;;;;16.58;7.95;;;;;;;0.42;100.00;102084.34;5031294;28;20045;-80
2021/12/15 07:04:43;;;;;;;14.60;7.82;;;;;;;0.50;100.00;102100.47;5031524;28;20049;-80
2021/12/15 07:07:11;;;;;;;14.82;8.35;;;;;;;0.46;100.00;102101.84;5035371;28;20057;-80
2021/12/15 07:09:39;;;;;;;14.57;8.32;;;;;;;0.35;100.00;102096.84;5035482;28;20045;-80
2021/12/15 07:12:08;;;;;;;12.40;7.80;;;;;;;0.38;100.00;102109.94;5035285;28;20407;-80
2021/12/15 07:14:36;;;;;;;17.10;8.30;;;;;;;0.37;100.00;102113.66;5035015;28;20038;-80
2021/12/15 07:17:10;;;;;;;10.65;6.78;;;;;;;0.46;100.00;102114.47;5035072;28;20120;-81
2021/12/15 07:20:04;;;;;;;11.93;7.35;;;;;;;0.50;100.00;102115.81;5035041;28;20049;-81
2021/12/15 07:24:57;;;;;;;12.75;8.02;;;;;;;0.65;100.00;102124.00;5020898;28;20043;-81
2021/12/15 07:27:25;;;;;;;19.40;10.35;;;;;;;0.73;100.00;102112.34;5034962;28;20046;-81
2021/12/15 07:29:53;;;;;;;14.30;7.80;;;;;;;1.05;100.00;102126.66;5034768;28;20403;-81
2021/12/15 07:32:21;;;;;;;11.70;7.80;;;;;;;1.18;100.00;102124.22;5033260;28;20053;-81
2021/12/15 07:34:48;;;;;;;12.93;7.68;;;;;;;1.19;100.00;102125.06;5034624;28;20404;-81
2021/12/15 07:37:17;;;;;;;15.02;7.85;;;;;;;1.27;100.00;102124.16;5034714;28;20038;-82
2021/12/15 07:39:54;;;;;;;15.02;8.13;;;;;;;1.32;100.00;102125.28;5034715;28;20045;-81
2021/12/15 07:42:33;;;;;;;16.48;9.15;;;;;;;1.41;100.00;102117.97;5034832;28;20045;-81
2021/12/15 07:45:03;;;;;;;12.50;7.80;;;;;;;1.68;99.31;102125.69;5034523;28;20049;-81
2021/12/15 07:47:31;;;;;;;19.35;9.20;;;;;;;2.00;97.44;102127.25;5034651;28;20053;-81
2021/12/15 07:50:01;;;;;;;19.10;9.48;;;;;;;1.90;97.68;102131.25;5023468;28;20045;-82
2021/12/15 07:52:29;;;;;;;19.02;9.93;;;;;;;1.84;97.14;102133.66;5032462;28;20042;-82
2021/12/15 07:54:57;;;;;;;19.05;10.52;;;;;;;1.67;97.28;102129.41;5034488;28;20041;-82
2021/12/15 07:57:28;;;;;;;19.52;10.52;;;;;;;1.77;96.56;102138.13;5032998;28;20049;-82
2021/12/15 07:59:59;;;;;;;18.70;10.70;;;;;;;1.76;97.08;102128.31;5034658;28;20069;-82
2021/12/15 08:02:27;;;;;;;18.98;10.80;;;;;;;1.89;95.86;102141.19;5033219;28;20408;-82
2021/12/15 08:04:55;;;;;;;20.95;11.18;;;;;;;2.02;94.78;102137.88;5034309;28;20037;-82
2021/12/15 08:07:23;;;;;;;20.17;11.40;;;;;;;2.19;93.67;102146.63;5032995;28;20060;-82
2021/12/15 08:09:51;;;;;;;18.88;10.82;;;;;;;2.31;93.06;102148.88;5034243;28;20041;-82
2021/12/15 08:12:19;;;;;;;20.38;11.88;;;;;;;2.29;92.82;102151.78;5033022;28;20042;-82
2021/12/15 08:14:47;;;;;;;21.70;11.57;;;;;;;2.27;91.96;102153.81;5033944;28;20042;-82
2021/12/15 08:17:16;;;;;;;24.92;12.07;;;;;;;2.47;92.69;102150.56;5032812;28;20045;-82
2021/12/15 08:19:44;;;;;;;34.05;16.10;;;;;;;2.60;90.79;102152.63;5033887;28;20488;-81
2021/12/15 08:22:12;;;;;;;78.50;26.85;;;;;;;2.73;90.06;102149.25;5033976;28;20120;-82
2021/12/15 08:24:40;;;;;;;41.45;14.70;;;;;;;3.01;90.32;102153.94;5034086;28;20046;-81
2021/12/15 08:27:09;;;;;;;20.08;11.18;;;;;;;3.02;88.62;102155.63;5022455;28;20050;-82
2021/12/15 08:29:37;;;;;;;22.33;11.52;;;;;;;3.12;89.41;102161.56;5030231;28;20048;-82
2021/12/15 08:32:05;;;;;;;48.90;21.25;;;;;;;3.13;88.60;102160.53;5032611;28;20048;-82
2021/12/15 08:34:33;;;;;;;33.80;16.58;;;;;;;3.26;89.01;102143.63;5033572;28;20072;-81
2021/12/15 08:37:01;;;;;;;43.00;23.10;;;;;;;3.44;88.54;102143.19;5033546;28;20381;-82
2021/12/15 08:39:28;;;;;;;62.42;37.65;;;;;;;3.66;88.19;102156.69;5032464;28;20053;-81
2021/12/15 08:41:56;;;;;;;37.88;25.17;;;;;;;4.06;87.57;102155.38;5033598;28;20068;-81
2021/12/15 08:44:24;;;;;;;36.92;27.02;;;;;;;4.21;85.57;102171.53;5032317;28;20037;-82
2021/12/15 08:46:53;;;;;;;28.90;19.67;;;;;;;4.40;84.35;102167.28;5033202;28;20064;-81
2021/12/15 08:49:23;;;;;;;25.90;19.25;;;;;;;4.57;83.96;102167.78;5027438;28;20038;-80
2021/12/15 08:51:51;;;;;;;24.30;11.95;;;;;;;4.38;83.48;102161.19;5026482;28;20045;-81
2021/12/15 08:54:21;;;;;;;23.45;16.55;;;;;;;4.21;84.46;102166.09;5031991;28;20049;-80
2021/12/15 08:56:51;;;;;;;24.88;16.00;;;;;;;4.35;84.29;102175.16;5033358;28;20045;-78
2021/12/15 08:59:19;;;;;;;21.55;13.73;;;;;;;4.37;84.16;102178.50;5033063;28;20037;-77
2021/12/15 09:01:48;;;;;;;20.52;12.13;;;;;;;4.52;83.37;102184.66;5033121;28;20394;-79
2021/12/15 09:04:17;;;;;;;29.13;16.63;;;;;;;4.77;83.30;102191.44;5032936;28;20411;-79
2021/12/15 09:06:47;;;;;;;17.95;13.27;;;;;;;4.90;82.18;102180.69;5064922;28;20046;-79
2021/12/15 09:09:17;;;;;;;21.95;12.85;;;;;;;5.30;81.12;102185.41;5033262;28;20060;-79
2021/12/15 09:11:45;;;;;;;22.73;11.40;;;;;;;5.45;80.44;102190.66;5033152;28;20049;-78
2021/12/15 09:14:13;;;;;;;17.08;9.82;;;;;;;5.97;79.96;102197.41;5032871;28;20053;-78
2021/12/15 09:16:45;;;;;;;21.17;10.57;;;;;;;6.08;77.15;102199.53;5031800;28;20052;-77
2021/12/15 09:19:15;;;;;;;19.17;9.48;;;;;;;6.33;78.21;102201.59;5019132;28;20049;-77
2021/12/15 09:21:46;;;;;;;21.75;13.07;;;;;;;6.39;76.28;102200.75;5063917;28;20504;-78
2021/12/15 09:24:14;;;;;;;13.80;10.15;;;;;;;6.54;75.43;102207.81;5032635;28;20041;-78
2021/12/15 09:26:42;;;;;;;21.60;10.93;;;;;;;6.50;75.17;102210.13;5031642;28;20053;-78
2021/12/15 09:29:10;;;;;;;18.33;9.90;;;;;;;6.61;72.31;102195.06;5032116;28;20041;-78
2021/12/15 09:31:39;;;;;;;19.73;13.05;;;;;;;6.91;74.44;102199.16;5032786;28;20116;-79
2021/12/15 09:34:08;;;;;;;19.67;10.75;;;;;;;6.93;72.10;102205.19;5032533;28;20053;-78
2021/12/15 09:36:36;;;;;;;17.90;10.52;;;;;;;7.07;72.16;102200.53;5032636;28;20138;-78
2021/12/15 09:39:09;;;;;;;17.38;11.13;;;;;;;7.16;72.13;102187.50;5032425;28;20037;-76
2021/12/15 09:41:37;;;;;;;31.35;13.32;;;;;;;7.21;71.53;102199.44;5032565;28;20108;-77
2021/12/15 09:44:10;;;;;;;33.40;15.82;;;;;;;7.40;71.67;102189.47;5032435;28;20045;-76
2021/12/15 09:47:08;;;;;;;30.73;15.73;;;;;;;7.39;69.90;102190.53;5032476;28;20045;-76
2021/12/15 10:06:28;;;;;;;17.77;10.73;;;;;;;7.76;67.53;102184.44;5041681;28;20041;-76
2021/12/15 10:12:06;;;;;;;18.65;10.38;;;;;;;8.10;67.03;102184.16;5020540;28;20041;-76
2021/12/15 10:19:54;;;;;;;18.38;11.43;;;;;;;8.45;66.02;102180.03;5031904;28;20509;-76
2021/12/15 10:22:32;;;;;;;23.15;15.20;;;;;;;8.38;64.39;102180.13;5032006;28;20045;-76
2021/12/15 10:25:09;;;;;;;31.38;19.63;;;;;;;8.53;63.61;102178.94;5031717;28;20052;-76
2021/12/15 10:27:43;;;;;;;25.05;13.65;;;;;;;8.38;62.82;102182.84;5031927;28;20400;-76
2021/12/15 10:30:14;;;;;;;25.52;19.45;;;;;;;7.99;65.66;102179.41;5032012;28;20053;-76
2021/12/15 10:32:44;;;;;;;23.35;16.15;;;;;;;8.11;65.95;102179.53;5030727;28;20048;-78
2021/12/15 10:35:21;;;;;;;18.42;11.50;;;;;;;8.23;64.74;102176.91;5031619;28;20049;-77
2021/12/15 10:38:25;;;;;;;19.25;12.18;;;;;;;8.17;63.76;102174.00;5030579;28;20045;-78
2021/12/15 10:41:05;;;;;;;19.42;11.27;;;;;;;8.05;65.46;102173.91;5033986;28;20037;-78
2021/12/15 10:43:36;;;;;;;17.13;10.73;;;;;;;8.37;65.46;102174.88;5035808;28;20042;-78
2021/12/15 10:46:14;;;;;;;20.90;10.75;;;;;;;8.60;64.41;102171.50;5035933;28;20056;-77
2021/12/15 10:48:53;;;;;;;14.70;11.00;;;;;;;8.74;63.63;102167.56;5034581;28;20400;-77
2021/12/15 10:51:53;;;;;;;21.27;10.77;;;;;;;8.86;63.40;102175.00;5024583;28;20064;-77
2021/12/15 10:54:29;;;;;;;14.43;9.70;;;;;;;9.07;61.94;102173.66;5021945;28;20045;-77
2021/12/15 10:57:06;;;;;;;18.83;10.63;;;;;;;8.99;61.88;102165.78;5035668;28;20064;-77
2021/12/15 10:59:41;;;;;;;17.30;10.40;;;;;;;9.05;61.32;102167.59;5022233;28;20049;-78
2021/12/15 11:02:32;;;;;;;16.10;10.13;;;;;;;8.94;62.04;102169.22;5035400;28;20048;-77
2021/12/15 11:05:09;;;;;;;21.77;10.48;;;;;;;8.92;61.74;102175.97;5035684;28;20040;-76
2021/12/15 11:07:41;;;;;;;17.58;9.80;;;;;;;8.85;61.64;102165.16;5034095;28;20049;-77
2021/12/15 11:10:14;;;;;;;18.88;10.52;;;;;;;8.97;63.28;102167.91;5035504;28;20485;-76
2021/12/15 11:12:59;;;;;;;24.77;15.88;;;;;;;9.43;61.94;102170.25;5035286;28;20054;-77
2021/12/15 11:15:32;;;;;;;366.83;127.13;;;;;;;9.46;61.55;102161.56;5035354;28;20045;-77
2021/12/15 11:18:14;;;;;;;482.00;196.23;;;;;;;9.47;61.84;102171.44;5034010;28;20056;-78
2021/12/15 11:20:47;;;;;;;93.22;44.10;;;;;;;9.52;61.32;102164.22;5033535;28;20125;-77
2021/12/15 11:23:17;;;;;;;40.67;20.33;;;;;;;9.63;60.40;102164.47;5033993;28;20038;-78
2021/12/15 11:25:45;;;;;;;36.15;18.20;;;;;;;9.68;61.05;102168.16;5031814;28;20500;-77
2021/12/15 11:28:19;;;;;;;18.48;11.18;;;;;;;9.76;61.08;102179.81;5034968;28;20049;-78
2021/12/15 11:30:53;;;;;;;31.70;13.85;;;;;;;9.87;60.15;102168.06;5035083;28;20053;-78
2021/12/15 11:33:32;;;;;;;31.50;21.63;;;;;;;9.81;60.26;102169.84;5035011;28;20072;-78
2021/12/15 11:36:13;;;;;;;30.70;16.90;;;;;;;9.59;60.03;102169.59;5035074;28;20073;-78
2021/12/15 11:38:50;;;;;;;25.08;12.73;;;;;;;9.47;61.16;102161.34;5035014;28;20045;-77
2021/12/15 11:41:20;;;;;;;28.17;13.02;;;;;;;9.30;60.83;102166.66;5034900;28;20369;-77
2021/12/15 11:43:52;;;;;;;21.92;15.52;;;;;;;9.49;60.45;102163.84;5033351;28;20492;-77
2021/12/15 11:46:19;;;;;;;24.65;14.85;;;;;;;9.22;60.95;102165.06;5034298;28;20048;-77
2021/12/15 11:48:52;;;;;;;17.92;10.82;;;;;;;9.40;61.52;102157.88;5032787;28;20041;-77
2021/12/15 11:51:33;;;;;;;24.10;12.90;;;;;;;9.66;59.93;102170.31;5023152;28;20037;-78
2021/12/15 11:54:03;;;;;;;23.33;12.65;;;;;;;9.48;59.36;102159.44;5033279;28;20289;-77
2021/12/15 11:56:35;;;;;;;20.23;10.50;;;;;;;9.86;58.71;102163.69;5034526;28;20488;-77
2021/12/15 11:59:39;;;;;;;17.65;9.82;;;;;;;9.93;58.48;102153.44;5030453;28;20053;-77
2021/12/15 12:02:20;;;;;;;19.80;12.60;;;;;;;10.19;58.00;102156.81;5028744;28;20042;-77
2021/12/15 12:04:48;;;;;;;28.83;21.40;;;;;;;10.32;57.93;102149.41;5025652;28;20033;-79
2021/12/15 12:07:35;;;;;;;19.05;10.60;;;;;;;10.04;56.85;102146.34;5027512;28;20787;-78
2021/12/15 12:10:13;;;;;;;17.13;9.68;;;;;;;10.22;56.27;102145.38;5032199;28;20049;-78
2021/12/15 12:12:53;;;;;;;15.02;8.85;;;;;;;10.24;56.98;102136.09;5029961;28;20484;-78
2021/12/15 12:15:25;;;;;;;14.77;9.00;;;;;;;10.41;56.18;102147.97;5027517;28;20045;-78
2021/12/15 12:17:57;;;;;;;17.08;8.68;;;;;;;10.52;56.94;102148.22;5020980;28;20405;-78
2021/12/15 12:20:32;;;;;;;17.50;8.98;;;;;;;10.54;56.42;102144.19;5021912;28;20041;-78
2021/12/15 12:23:08;;;;;;;16.13;9.25;;;;;;;10.58;56.69;102150.84;5023984;28;20041;-78
2021/12/15 12:25:47;;;;;;;19.13;10.43;;;;;;;10.45;57.01;102154.66;5014178;28;20049;-78
2021/12/15 12:28:19;;;;;;;13.25;9.38;;;;;;;10.39;57.94;102152.00;5014055;28;20080;-78
2021/12/15 12:30:56;;;;;;;17.15;9.25;;;;;;;10.31;57.59;102137.63;5022886;28;20068;-78
2021/12/15 12:33:28;;;;;;;19.10;8.77;;;;;;;10.48;57.26;102142.41;5029019;28;20045;-78
2021/12/15 12:36:16;;;;;;;18.33;9.27;;;;;;;10.11;56.98;102137.19;5023442;28;20045;-79
2021/12/15 12:38:54;;;;;;;15.80;8.50;;;;;;;10.13;58.12;102130.41;5013630;28;20046;-78
2021/12/15 12:41:29;;;;;;;12.98;8.77;;;;;;;10.02;60.60;102123.03;5029037;28;20049;-79
2021/12/15 12:44:00;;;;;;;59.88;37.10;;;;;;;9.84;61.68;102122.06;5013639;28;20497;-79